Terminal Aerodrome Forecast
Issued by NWS

Home | Current Version | Previous Version | Text Only | Print | Product List | Glossary On
Versions: 1 2 3 4 5 6 7 8 9 10 11 12 13 14 15 16 17
000
FTUS41 KPBZ 290526
TAFMGW
TAF
KMGW 290526Z 2906/3006 VRB03KT P6SM FEW040
     FM291900 17005KT P6SM VCTS BKN040CB
     FM300400 VRB04KT P6SM BKN080=

USA.gov is the U.S. government's official web portal to all federal, state and local government web resources and services.